Time;durP1;ratioP1;P1;durP2;ratioP2;P2;SDS_P1;SDS_P2;PMS_P1;PMS_P2;Temp;Humidity;BMP_temperature;BMP_pressure;BME280_temperature;BME280_humidity;BME280_pressure;Samples;Min_cycle;Max_cycle;Signal;HPM_P1;HPM_P2
2023/06/13 00:00:54;;;;;;;7.40;5.60;;;16.10;61.70;;;;;;5008705;28;20445;-70
2023/06/13 00:03:40;;;;;;;9.50;5.83;;;16.10;61.80;;;;;;5009497;28;20456;-71
2023/06/13 00:06:27;;;;;;;9.07;6.90;;;16.30;60.50;;;;;;5011810;28;20554;-71
2023/06/13 00:09:12;;;;;;;6.47;5.40;;;16.20;61.10;;;;;;5011439;28;20837;-71
2023/06/13 00:11:58;;;;;;;11.00;5.53;;;16.20;61.00;;;;;;5013969;28;20445;-71
2023/06/13 00:14:43;;;;;;;13.80;5.10;;;16.10;60.80;;;;;;5019820;28;20477;-71
2023/06/13 00:17:31;;;;;;;9.30;5.57;;;16.00;61.40;;;;;;5015726;28;20455;-72
2023/06/13 00:20:17;;;;;;;7.53;5.80;;;16.00;60.20;;;;;;5016259;28;20479;-71
2023/06/13 00:23:04;;;;;;;9.60;5.63;;;16.00;60.40;;;;;;5012204;28;20452;-72
2023/06/13 00:25:49;;;;;;;9.63;5.77;;;15.90;61.10;;;;;;5011881;28;20452;-72
2023/06/13 00:28:34;;;;;;;9.93;5.77;;;15.90;61.10;;;;;;5011062;28;20441;-70
2023/06/13 00:31:20;;;;;;;7.40;5.70;;;15.90;60.80;;;;;;5012345;28;20469;-71
2023/06/13 00:34:07;;;;;;;7.03;5.03;;;15.90;60.60;;;;;;5017321;28;20746;-70
2023/06/13 00:36:53;;;;;;;7.83;4.87;;;15.90;60.10;;;;;;5012828;28;20564;-71
2023/06/13 00:39:39;;;;;;;7.07;5.50;;;16.00;60.00;;;;;;5010304;28;20488;-71
2023/06/13 00:42:24;;;;;;;10.87;6.23;;;16.10;59.00;;;;;;5012342;28;20568;-71
2023/06/13 00:45:21;;;;;;;5.80;4.53;;;16.10;58.20;;;;;;5022160;28;20423;-72
2023/06/13 00:48:08;;;;;;;8.93;4.90;;;16.10;58.30;;;;;;5010783;28;20424;-71
2023/06/13 00:50:55;;;;;;;10.90;4.73;;;16.20;57.00;;;;;;5023724;28;20452;-72
2023/06/13 00:53:41;;;;;;;7.60;5.00;;;16.10;57.10;;;;;;5011285;28;20453;-71
2023/06/13 00:56:28;;;;;;;9.93;5.10;;;16.00;56.30;;;;;;5009306;28;20483;-70
2023/06/13 00:59:14;;;;;;;7.40;4.03;;;16.00;57.90;;;;;;5009280;28;20607;-71
2023/06/13 01:02:00;;;;;;;14.30;4.67;;;16.10;56.90;;;;;;5007052;28;20506;-71
2023/06/13 01:04:47;;;;;;;7.10;4.40;;;16.10;56.20;;;;;;5011444;28;20532;-72
2023/06/13 01:07:34;;;;;;;7.43;4.10;;;16.10;57.50;;;;;;5011759;28;20449;-71
2023/06/13 01:10:21;;;;;;;8.10;5.07;;;16.00;54.30;;;;;;5014021;28;20468;-71
2023/06/13 01:13:13;;;;;;;7.60;5.17;;;16.00;56.60;;;;;;5022512;28;20488;-71
2023/06/13 01:16:06;;;;;;;6.20;4.30;;;15.90;57.00;;;;;;5024800;28;20453;-71
2023/06/13 01:18:54;;;;;;;11.80;5.00;;;15.80;56.10;;;;;;5009632;28;21064;-71
2023/06/13 01:21:41;;;;;;;6.57;4.57;;;15.80;58.20;;;;;;5009362;28;20468;-71
2023/06/13 01:24:38;;;;;;;7.03;4.20;;;15.80;58.60;;;;;;5010119;28;20486;-71
2023/06/13 01:27:25;;;;;;;5.30;3.70;;;15.80;56.50;;;;;;5008664;28;20507;-71
2023/06/13 01:30:12;;;;;;;11.30;4.40;;;15.90;56.60;;;;;;5006267;28;20535;-71
2023/06/13 01:32:58;;;;;;;5.87;4.63;;;15.70;57.30;;;;;;5009121;28;21141;-71
2023/06/13 01:35:44;;;;;;;4.87;3.60;;;15.80;57.10;;;;;;5016596;28;20445;-72
2023/06/13 01:41:12;;;;;;;5.37;4.10;;;15.60;57.10;;;;;;5051014;28;21080;-73
2023/06/13 01:43:57;;;;;;;9.80;4.10;;;15.60;57.10;;;;;;5041643;28;20584;-73
2023/06/13 01:46:47;;;;;;;7.60;3.97;;;15.60;57.00;;;;;;5031179;28;20456;-71
2023/06/13 01:49:41;;;;;;;8.03;3.80;;;15.60;57.90;;;;;;5033347;28;20499;-72
2023/06/13 01:52:35;;;;;;;7.83;4.30;;;15.50;57.60;;;;;;5034583;28;20492;-72
2023/06/13 01:55:27;;;;;;;6.87;4.47;;;15.50;57.80;;;;;;5033298;28;20455;-73
2023/06/13 01:58:20;;;;;;;7.13;4.07;;;15.20;58.50;;;;;;5033572;28;20989;-71
2023/06/13 02:01:06;;;;;;;16.30;3.90;;;15.10;59.50;;;;;;5038052;28;20454;-72
2023/06/13 02:03:52;;;;;;;46.73;5.80;;;15.00;59.80;;;;;;5034117;28;20658;-72
2023/06/13 02:06:38;;;;;;;28.53;5.03;;;15.00;60.90;;;;;;5034633;28;20451;-72
2023/06/13 02:09:23;;;;;;;28.57;4.80;;;15.00;60.90;;;;;;5037275;28;21549;-72
2023/06/13 02:12:10;;;;;;;10.27;4.33;;;15.10;60.90;;;;;;5033003;28;20447;-71
2023/06/13 02:14:57;;;;;;;11.57;4.50;;;15.20;59.90;;;;;;5032012;28;20865;-70
2023/06/13 02:17:42;;;;;;;6.70;4.60;;;15.10;60.70;;;;;;5031683;28;20451;-72
2023/06/13 02:20:28;;;;;;;15.73;5.37;;;15.10;60.90;;;;;;5032688;28;20518;-70
2023/06/13 02:23:13;;;;;;;6.13;4.70;;;14.90;60.80;;;;;;5032720;28;20448;-73
2023/06/13 02:25:59;;;;;;;5.83;4.43;;;14.90;61.20;;;;;;5033317;28;20510;-71
2023/06/13 02:28:45;;;;;;;6.30;4.80;;;14.90;62.50;;;;;;5031910;28;20940;-71
2023/06/13 02:31:35;;;;;;;7.63;4.47;;;14.90;62.70;;;;;;5030033;28;20475;-72
2023/06/13 02:34:20;;;;;;;7.57;3.53;;;14.80;61.80;;;;;;5029870;28;20452;-72
2023/06/13 02:37:06;;;;;;;5.07;3.80;;;14.80;63.00;;;;;;5039439;28;20435;-73
2023/06/13 02:39:52;;;;;;;6.07;4.57;;;14.70;62.50;;;;;;5030570;28;21124;-72
2023/06/13 02:42:38;;;;;;;11.03;4.23;;;14.80;62.90;;;;;;5040962;28;20459;-73
2023/06/13 02:45:23;;;;;;;11.30;4.20;;;14.70;62.70;;;;;;5030752;28;20503;-72
2023/06/13 02:48:11;;;;;;;6.03;4.33;;;14.70;63.20;;;;;;5031301;28;20423;-73
2023/06/13 02:50:57;;;;;;;5.83;4.23;;;14.60;63.40;;;;;;5028724;28;20457;-73
2023/06/13 02:53:42;;;;;;;5.40;4.27;;;14.60;63.50;;;;;;5021715;28;20453;-73
2023/06/13 02:56:28;;;;;;;7.20;4.10;;;14.60;63.80;;;;;;5019249;28;20452;-72
2023/06/13 02:59:13;;;;;;;7.70;4.67;;;14.60;64.20;;;;;;5021191;28;20497;-72
2023/06/13 03:01:59;;;;;;;13.63;4.33;;;14.60;64.70;;;;;;5016091;28;20824;-71
2023/06/13 03:04:47;;;;;;;9.17;5.17;;;14.60;64.70;;;;;;5018825;28;20465;-71
2023/06/13 03:07:32;;;;;;;14.77;5.10;;;14.70;64.40;;;;;;5013917;28;20513;-72
2023/06/13 03:10:18;;;;;;;10.30;4.60;;;14.60;64.10;;;;;;5016970;28;20443;-73
2023/06/13 03:13:03;;;;;;;6.87;4.30;;;14.50;64.10;;;;;;5019141;28;20426;-71
2023/06/13 03:15:51;;;;;;;8.70;4.47;;;14.50;65.60;;;;;;5016227;28;20423;-73
2023/06/13 03:18:37;;;;;;;9.77;5.30;;;14.50;65.40;;;;;;5022189;28;20485;-73
2023/06/13 03:21:23;;;;;;;6.50;4.57;;;14.40;65.80;;;;;;5030328;28;21506;-73
2023/06/13 03:24:10;;;;;;;5.40;4.10;;;14.40;66.50;;;;;;5018770;28;20449;-73
2023/06/13 03:26:56;;;;;;;7.53;4.57;;;14.40;66.50;;;;;;5016296;28;20494;-71
2023/06/13 03:29:42;;;;;;;9.83;4.47;;;14.40;66.30;;;;;;5019068;28;20451;-72
2023/06/13 03:32:27;;;;;;;6.47;4.50;;;14.40;66.80;;;;;;5015764;28;20499;-72
2023/06/13 03:35:13;;;;;;;7.87;4.63;;;14.40;67.00;;;;;;5015253;28;20591;-73
2023/06/13 03:38:00;;;;;;;8.40;4.27;;;14.30;67.30;;;;;;5014492;28;20951;-71
2023/06/13 03:40:45;;;;;;;10.40;4.43;;;14.40;67.70;;;;;;5027293;28;20481;-71
2023/06/13 03:43:32;;;;;;;11.13;4.80;;;14.30;68.70;;;;;;5017123;28;22947;-70
2023/06/13 03:46:18;;;;;;;17.80;5.77;;;14.40;69.00;;;;;;5013833;28;20453;-70
2023/06/13 03:49:03;;;;;;;19.73;5.43;;;14.40;68.60;;;;;;5016237;28;20455;-72
2023/06/13 03:51:49;;;;;;;7.70;4.50;;;14.50;69.10;;;;;;5016223;28;20406;-72
2023/06/13 03:54:36;;;;;;;12.30;5.93;;;14.40;69.40;;;;;;5018386;28;20420;-72
2023/06/13 03:57:21;;;;;;;20.97;5.33;;;14.50;69.40;;;;;;5024303;28;21010;-73
2023/06/13 04:00:09;;;;;;;6.97;5.30;;;14.50;69.20;;;;;;5019237;28;20447;-71
2023/06/13 04:02:55;;;;;;;5.70;4.70;;;14.50;70.10;;;;;;5020065;28;20457;-73
2023/06/13 04:05:40;;;;;;;5.57;4.50;;;14.50;70.10;;;;;;5016344;28;20963;-71
2023/06/13 04:08:26;;;;;;;7.20;5.20;;;14.60;70.20;;;;;;5017164;28;20476;-73
2023/06/13 04:11:13;;;;;;;6.63;4.80;;;14.60;70.20;;;;;;5014987;28;20445;-72
2023/06/13 04:13:58;;;;;;;6.50;4.70;;;14.60;70.20;;;;;;5016769;28;20465;-73
2023/06/13 04:16:44;;;;;;;5.33;4.20;;;14.80;70.90;;;;;;5017086;28;20546;-72
2023/06/13 04:19:31;;;;;;;6.90;4.83;;;14.90;70.60;;;;;;5014493;28;21019;-73
2023/06/13 04:22:18;;;;;;;6.50;5.23;;;14.80;70.40;;;;;;5019778;28;20460;-73
2023/06/13 04:25:03;;;;;;;6.60;4.90;;;14.80;70.40;;;;;;5021458;28;21120;-73
2023/06/13 04:27:50;;;;;;;7.03;4.90;;;15.00;69.50;;;;;;5013494;28;20465;-72
2023/06/13 04:30:36;;;;;;;9.50;4.70;;;15.10;70.60;;;;;;5021250;28;20440;-73
2023/06/13 04:33:21;;;;;;;13.97;5.33;;;15.10;70.20;;;;;;5021109;28;20445;-72
2023/06/13 04:36:08;;;;;;;11.10;6.03;;;15.00;70.50;;;;;;5016600;28;22660;-71
2023/06/13 04:38:54;;;;;;;6.90;4.60;;;15.00;72.10;;;;;;5021244;28;20435;-73
2023/06/13 04:41:43;;;;;;;8.50;5.50;;;15.10;71.70;;;;;;5012940;28;20469;-72
2023/06/13 04:44:30;;;;;;;11.00;6.00;;;15.10;72.40;;;;;;5018835;28;20528;-73
2023/06/13 04:47:16;;;;;;;9.00;5.57;;;15.20;72.40;;;;;;5019641;28;20424;-73
2023/06/13 04:50:01;;;;;;;10.00;5.57;;;15.30;72.20;;;;;;5020502;28;20997;-73
2023/06/13 04:52:50;;;;;;;12.57;6.00;;;15.30;71.70;;;;;;5015244;28;20861;-73
2023/06/13 04:55:37;;;;;;;6.00;5.00;;;15.40;71.60;;;;;;5031199;28;20783;-73
2023/06/13 04:58:24;;;;;;;6.53;5.13;;;15.50;72.30;;;;;;5014772;28;20489;-72
2023/06/13 05:01:14;;;;;;;6.13;5.43;;;15.60;72.20;;;;;;5014193;28;20876;-70
2023/06/13 05:03:59;;;;;;;6.63;5.63;;;15.70;72.30;;;;;;5016171;28;20429;-70
2023/06/13 05:06:45;;;;;;;8.70;5.13;;;15.90;72.60;;;;;;5014874;28;20477;-71
2023/06/13 05:09:30;;;;;;;8.50;5.57;;;15.90;71.30;;;;;;5014866;28;20480;-72
2023/06/13 05:12:16;;;;;;;12.70;5.50;;;16.10;71.40;;;;;;5013448;28;22051;-73
2023/06/13 05:15:02;;;;;;;7.53;5.27;;;16.20;70.40;;;;;;5015102;28;20487;-71
2023/06/13 05:17:52;;;;;;;6.57;5.53;;;16.30;70.60;;;;;;5019943;28;20441;-73
2023/06/13 05:20:37;;;;;;;5.13;4.63;;;16.40;71.30;;;;;;5015820;28;20632;-73
2023/06/13 05:23:23;;;;;;;8.37;5.43;;;16.60;69.50;;;;;;5016828;28;20440;-73
2023/06/13 05:26:08;;;;;;;7.03;5.50;;;16.60;66.80;;;;;;5013921;28;20487;-71
2023/06/13 05:28:54;;;;;;;12.70;5.07;;;16.80;67.60;;;;;;5014008;28;20547;-70
2023/06/13 05:31:39;;;;;;;9.13;5.80;;;17.00;68.70;;;;;;5023128;28;20534;-70
2023/06/13 05:34:27;;;;;;;6.30;4.67;;;17.20;69.00;;;;;;5014298;28;20445;-70
2023/06/13 05:37:12;;;;;;;8.60;5.43;;;17.40;66.70;;;;;;5015716;28;20445;-69
2023/06/13 05:39:58;;;;;;;5.67;4.43;;;17.60;63.50;;;;;;5016846;28;20446;-71
2023/06/13 05:42:43;;;;;;;5.77;4.47;;;17.70;63.10;;;;;;5014131;28;20464;-72
2023/06/13 05:45:29;;;;;;;9.47;5.17;;;17.90;63.20;;;;;;5018220;28;20548;-73
2023/06/13 05:48:15;;;;;;;7.83;5.10;;;18.00;61.80;;;;;;5014213;28;20487;-73
2023/06/13 05:51:03;;;;;;;8.10;4.70;;;18.20;59.60;;;;;;5015018;28;20577;-73
2023/06/13 05:53:49;;;;;;;6.57;4.30;;;18.30;55.40;;;;;;5024497;28;20519;-74
2023/06/13 05:56:36;;;;;;;5.47;4.40;;;18.50;55.50;;;;;;5014969;28;20570;-72
2023/06/13 05:59:21;;;;;;;7.20;5.30;;;18.70;53.20;;;;;;5022083;28;20483;-72
2023/06/13 06:02:09;;;;;;;7.00;4.50;;;18.80;52.00;;;;;;5013876;28;20466;-72
2023/06/13 06:04:56;;;;;;;8.00;4.20;;;18.90;48.70;;;;;;5015881;28;20817;-71
2023/06/13 06:07:44;;;;;;;7.27;4.23;;;19.00;46.00;;;;;;5027966;28;20460;-73
2023/06/13 06:10:30;;;;;;;6.83;4.50;;;19.10;44.80;;;;;;5014439;28;20894;-72
2023/06/13 06:13:15;;;;;;;6.13;4.30;;;19.20;40.40;;;;;;5016879;28;20578;-72
2023/06/13 06:16:01;;;;;;;6.53;3.70;;;19.40;41.30;;;;;;5013759;28;20470;-73
2023/06/13 06:18:46;;;;;;;6.50;4.20;;;19.50;37.40;;;;;;5017412;28;20526;-71
2023/06/13 06:21:32;;;;;;;7.17;4.00;;;19.60;31.60;;;;;;5016797;28;20444;-73
2023/06/13 06:24:19;;;;;;;7.40;4.90;;;19.70;31.60;;;;;;5018922;28;20826;-72
2023/06/13 06:27:05;;;;;;;6.53;4.47;;;19.80;30.10;;;;;;5016560;28;20452;-71
2023/06/13 06:29:51;;;;;;;6.20;4.60;;;19.90;30.90;;;;;;5018787;28;20575;-72
2023/06/13 06:32:36;;;;;;;8.17;4.40;;;20.00;30.30;;;;;;5016299;28;20545;-73
2023/06/13 06:35:22;;;;;;;6.77;4.00;;;20.20;30.00;;;;;;5018835;28;20453;-73
2023/06/13 06:38:07;;;;;;;8.00;4.17;;;20.30;28.40;;;;;;5025615;28;20464;-73
2023/06/13 06:40:54;;;;;;;4.97;3.67;;;20.40;28.30;;;;;;5017919;28;21088;-71
2023/06/13 06:43:40;;;;;;;6.53;3.60;;;20.50;29.10;;;;;;5018915;28;20789;-73
2023/06/13 06:46:25;;;;;;;7.60;4.20;;;20.60;26.90;;;;;;5017251;28;20451;-72
2023/06/13 06:49:11;;;;;;;7.43;4.17;;;20.60;27.20;;;;;;5016503;28;20476;-73
2023/06/13 06:51:57;;;;;;;5.23;4.00;;;20.70;27.00;;;;;;5015720;28;20453;-74
2023/06/13 06:54:42;;;;;;;8.87;4.13;;;20.80;25.40;;;;;;5016615;28;21020;-72
2023/06/13 06:57:29;;;;;;;6.93;4.10;;;20.80;26.60;;;;;;5018670;28;20448;-73
2023/06/13 07:00:16;;;;;;;10.13;4.73;;;20.90;25.00;;;;;;5020326;28;20477;-73
2023/06/13 07:03:01;;;;;;;6.47;4.20;;;20.90;23.80;;;;;;5019260;28;20440;-73
2023/06/13 07:05:47;;;;;;;9.40;4.30;;;20.90;25.20;;;;;;5016734;28;20442;-72
2023/06/13 07:08:33;;;;;;;5.07;4.00;;;21.00;22.50;;;;;;5017692;28;20439;-72
2023/06/13 07:11:18;;;;;;;4.87;3.90;;;21.00;22.70;;;;;;5014394;28;20440;-72
2023/06/13 07:14:05;;;;;;;8.63;4.37;;;21.10;22.90;;;;;;5018803;28;20635;-72
2023/06/13 07:16:51;;;;;;;5.57;4.00;;;21.10;20.70;;;;;;5018802;28;20444;-72
2023/06/13 07:19:36;;;;;;;8.10;4.33;;;21.10;20.40;;;;;;5017710;28;20996;-73
2023/06/13 07:22:22;;;;;;;6.00;4.27;;;21.10;22.10;;;;;;5017123;28;20493;-71
2023/06/13 07:25:07;;;;;;;9.90;3.50;;;21.20;22.60;;;;;;5016164;28;20452;-71
2023/06/13 07:27:53;;;;;;;5.90;3.73;;;21.30;21.80;;;;;;5017783;28;20448;-71
2023/06/13 07:30:40;;;;;;;5.90;3.83;;;21.40;22.00;;;;;;5015250;28;20468;-73
2023/06/13 07:33:25;;;;;;;6.50;4.00;;;21.50;21.90;;;;;;5020793;28;20428;-73
2023/06/13 07:36:10;;;;;;;6.73;4.30;;;21.50;20.80;;;;;;5017608;28;21084;-73
2023/06/13 07:38:56;;;;;;;7.20;4.57;;;21.60;20.00;;;;;;5021344;28;20473;-71
2023/06/13 07:41:44;;;;;;;8.47;3.83;;;21.70;19.70;;;;;;5020424;28;20637;-72
2023/06/13 07:44:29;;;;;;;6.57;3.97;;;21.80;20.50;;;;;;5034092;22;20867;-91
2023/06/13 07:47:17;;;;;;;12.00;4.37;;;21.90;20.00;;;;;;5023107;28;20498;-89
2023/06/13 07:50:03;;;;;;;9.20;4.00;;;21.90;20.40;;;;;;5021853;28;20985;-91
2023/06/13 07:52:49;;;;;;;5.47;4.10;;;22.00;18.80;;;;;;5006156;28;20441;-88
2023/06/13 07:55:36;;;;;;;4.93;3.30;;;22.00;19.30;;;;;;5004321;28;20420;-89
2023/06/13 07:58:21;;;;;;;4.40;3.60;;;22.00;18.60;;;;;;5001333;28;20565;-88
2023/06/13 08:01:07;;;;;;;7.40;4.40;;;22.10;19.40;;;;;;5002941;28;20720;-89
2023/06/13 08:03:53;;;;;;;9.27;4.40;;;22.10;18.10;;;;;;5003458;28;20533;-90
2023/06/13 08:06:40;;;;;;;5.40;4.33;;;22.20;19.80;;;;;;5000380;28;20445;-89
2023/06/13 08:09:25;;;;;;;5.50;3.87;;;22.20;17.40;;;;;;4999771;28;20850;-90
2023/06/13 08:12:11;;;;;;;6.50;4.03;;;22.30;17.20;;;;;;4997126;28;20465;-90
2023/06/13 08:14:57;;;;;;;5.40;3.83;;;22.30;18.00;;;;;;5000852;28;20521;-88
2023/06/13 08:17:42;;;;;;;14.53;4.50;;;22.40;17.70;;;;;;4999286;28;20453;-90
2023/06/13 08:20:30;;;;;;;9.07;4.30;;;22.50;18.20;;;;;;4999607;28;20477;-90
2023/06/13 08:23:17;;;;;;;8.37;3.90;;;22.60;19.20;;;;;;5009974;28;21051;-90
2023/06/13 08:26:03;;;;;;;8.03;4.30;;;22.70;18.30;;;;;;5005202;28;20445;-92
2023/06/13 08:28:49;;;;;;;5.27;3.77;;;22.70;16.60;;;;;;5006653;28;20966;-90
2023/06/13 08:31:34;;;;;;;7.80;4.30;;;22.80;17.90;;;;;;5007291;28;20473;-93
2023/06/13 08:34:21;;;;;;;8.33;4.27;;;22.80;17.20;;;;;;5005663;28;20525;-91
2023/06/13 08:37:08;;;;;;;10.70;4.20;;;22.90;17.30;;;;;;5006139;28;20442;-92
2023/06/13 08:39:54;;;;;;;6.00;3.70;;;22.90;17.30;;;;;;5007058;28;20457;-91
2023/06/13 08:42:41;;;;;;;4.93;3.83;;;23.00;17.90;;;;;;5004736;28;20607;-93
2023/06/13 08:45:26;;;;;;;7.70;4.30;;;23.10;18.80;;;;;;5003874;28;20457;-90
2023/06/13 08:48:12;;;;;;;6.40;3.97;;;23.20;18.80;;;;;;5004272;28;20963;-91
2023/06/13 08:50:58;;;;;;;5.50;3.20;;;23.20;17.60;;;;;;5003333;28;20481;-90
2023/06/13 08:53:49;;;;;;;8.37;3.93;;;23.30;17.70;;;;;;5001657;28;20589;-90
2023/06/13 08:56:40;;;;;;;8.43;4.10;;;23.30;17.70;;;;;;5003476;28;20454;-90
2023/06/13 08:59:26;;;;;;;9.80;4.37;;;23.40;16.80;;;;;;5005066;28;20412;-93
2023/06/13 09:02:15;;;;;;;5.00;3.70;;;23.40;16.60;;;;;;5004912;28;20565;-91
2023/06/13 09:05:01;;;;;;;5.23;3.73;;;23.40;15.20;;;;;;5005971;28;20792;-92
2023/06/13 09:07:47;;;;;;;7.30;3.73;;;23.50;16.10;;;;;;5004887;28;20580;-90
2023/06/13 09:10:35;;;;;;;12.40;4.50;;;23.50;16.40;;;;;;5001029;28;20477;-92
2023/06/13 09:13:23;;;;;;;5.63;4.10;;;23.50;16.80;;;;;;5004571;28;20580;-92
2023/06/13 09:16:08;;;;;;;5.87;4.00;;;23.60;15.30;;;;;;5004498;28;20921;-90
2023/06/13 09:18:54;;;;;;;7.10;3.90;;;23.70;17.40;;;;;;5003125;28;22267;-90
2023/06/13 09:21:40;;;;;;;5.77;3.93;;;23.70;15.70;;;;;;4998776;28;20482;-88
2023/06/13 09:24:26;;;;;;;6.07;3.37;;;23.80;16.40;;;;;;4998111;28;20452;-90
2023/06/13 09:27:14;;;;;;;5.37;3.17;;;23.90;18.10;;;;;;5002173;28;20814;-88
2023/06/13 09:30:01;;;;;;;7.17;3.80;;;23.90;14.80;;;;;;5003892;28;20524;-89
2023/06/13 09:32:49;;;;;;;6.93;3.70;;;24.00;14.40;;;;;;4999633;28;20540;-90
2023/06/13 09:35:36;;;;;;;6.60;3.70;;;24.00;15.50;;;;;;4998523;28;20442;-89
2023/06/13 09:38:26;;;;;;;5.43;4.03;;;24.10;15.90;;;;;;4999148;28;20629;-89
2023/06/13 09:41:13;;;;;;;7.83;3.80;;;24.20;14.20;;;;;;4998566;28;20469;-90
2023/06/13 09:44:04;;;;;;;7.33;4.43;;;24.20;13.50;;;;;;5000056;28;20588;-89
2023/06/13 09:46:51;;;;;;;11.70;3.60;;;24.20;14.50;;;;;;4999779;28;20518;-90
2023/06/13 09:49:38;;;;;;;5.37;3.97;;;24.20;15.20;;;;;;5002336;28;20950;-90
2023/06/13 09:52:25;;;;;;;7.40;3.80;;;24.30;14.60;;;;;;5000073;28;20469;-89
2023/06/13 09:55:12;;;;;;;6.30;4.33;;;24.20;14.60;;;;;;5001700;28;20630;-90
2023/06/13 09:57:58;;;;;;;8.93;4.10;;;24.10;15.30;;;;;;5001255;28;20461;-88
2023/06/13 10:00:48;;;;;;;5.77;3.70;;;24.10;15.20;;;;;;5003889;28;20658;-89
2023/06/13 10:03:41;;;;;;;7.10;4.40;;;24.20;15.90;;;;;;5005712;28;21022;-90
2023/06/13 10:06:39;;;;;;;10.80;4.80;;;24.30;13.70;;;;;;5005913;28;21001;-89
2023/06/13 10:09:24;;;;;;;5.90;3.77;;;24.40;15.10;;;;;;5006936;28;20449;-90
2023/06/13 10:12:18;;;;;;;6.87;3.80;;;24.30;13.80;;;;;;5004555;28;20465;-88
2023/06/13 10:15:07;;;;;;;10.67;4.50;;;24.30;13.00;;;;;;5004475;28;20442;-91
2023/06/13 10:17:58;;;;;;;20.03;4.43;;;24.30;13.60;;;;;;5006871;28;20462;-90
2023/06/13 10:20:47;;;;;;;7.00;3.97;;;24.40;15.40;;;;;;5007389;28;20924;-91
2023/06/13 10:23:36;;;;;;;4.53;3.80;;;24.50;14.50;;;;;;5009470;28;20462;-89
2023/06/13 10:26:32;;;;;;;5.70;4.33;;;24.70;14.50;;;;;;5002457;28;20620;-90
2023/06/13 10:29:49;;;;;;;4.90;3.53;;;24.80;14.40;;;;;;5007897;28;20449;-90
2023/06/13 10:32:53;;;;;;;5.67;3.80;;;24.90;13.10;;;;;;5006126;28;20453;-90
2023/06/13 10:35:54;;;;;;;10.27;4.10;;;24.80;13.90;;;;;;5011106;28;20524;-90
2023/06/13 10:39:09;;;;;;;5.60;3.87;;;25.00;14.50;;;;;;5008198;28;20448;-91
2023/06/13 10:42:04;;;;;;;4.90;3.77;;;25.00;14.70;;;;;;5007890;28;21811;-90
2023/06/13 10:44:59;;;;;;;9.70;5.27;;;25.10;14.80;;;;;;5010929;28;20509;-90
2023/06/13 10:47:44;;;;;;;6.70;4.37;;;25.30;13.10;;;;;;5004103;28;20451;-89
2023/06/13 10:50:37;;;;;;;10.00;4.70;;;25.30;11.70;;;;;;5006729;28;21567;-89
2023/06/13 10:53:28;;;;;;;5.67;4.20;;;25.40;12.20;;;;;;4999807;28;20555;-90
2023/06/13 10:56:13;;;;;;;9.43;5.00;;;25.50;12.10;;;;;;5001276;28;20512;-90
2023/06/13 10:59:03;;;;;;;5.50;4.03;;;25.60;11.70;;;;;;5001380;28;21059;-91
2023/06/13 11:01:52;;;;;;;5.80;4.23;;;25.70;12.40;;;;;;5002477;28;20538;-90
2023/06/13 11:04:40;;;;;;;5.90;4.10;;;25.70;13.40;;;;;;5000984;28;20528;-91
2023/06/13 11:07:28;;;;;;;6.60;4.30;;;25.90;14.30;;;;;;5004340;28;20455;-90
2023/06/13 11:10:18;;;;;;;7.73;4.23;;;25.90;12.10;;;;;;5002477;28;20700;-90
2023/06/13 11:13:04;;;;;;;5.83;4.07;;;25.90;12.50;;;;;;5001157;28;20453;-91
2023/06/13 11:15:51;;;;;;;7.73;3.97;;;26.00;10.20;;;;;;5001833;28;20556;-90
2023/06/13 11:18:36;;;;;;;10.60;4.53;;;26.00;11.80;;;;;;5001640;28;20459;-90
2023/06/13 11:21:22;;;;;;;5.00;4.10;;;26.10;12.40;;;;;;5002407;28;20476;-89
2023/06/13 11:24:08;;;;;;;5.37;4.27;;;26.10;11.90;;;;;;5000532;28;20696;-90
2023/06/13 11:27:00;;;;;;;6.67;4.10;;;26.10;12.10;;;;;;4999648;28;20463;-91
2023/06/13 11:29:45;;;;;;;6.43;4.33;;;26.20;11.20;;;;;;5003206;28;20504;-90
2023/06/13 11:32:34;;;;;;;6.00;3.80;;;26.30;10.40;;;;;;5002484;28;20483;-90
2023/06/13 11:35:23;;;;;;;5.53;4.00;;;26.30;12.70;;;;;;5001846;28;20600;-90
2023/06/13 11:38:15;;;;;;;8.10;4.40;;;26.40;11.40;;;;;;5000438;28;20526;-89
2023/06/13 11:41:01;;;;;;;8.00;4.30;;;26.50;10.90;;;;;;4999003;28;20470;-90
2023/06/13 11:43:48;;;;;;;6.50;3.90;;;26.50;11.70;;;;;;5000315;28;20515;-92
2023/06/13 11:46:34;;;;;;;6.83;4.70;;;26.60;10.90;;;;;;5002286;28;20468;-91
2023/06/13 11:49:19;;;;;;;5.03;3.27;;;26.70;12.10;;;;;;5001670;28;20585;-91
2023/06/13 11:52:14;;;;;;;5.87;3.47;;;26.80;10.70;;;;;;5002545;28;20471;-91
2023/06/13 11:55:01;;;;;;;6.30;3.90;;;26.90;9.30;;;;;;5001597;28;20518;-91
2023/06/13 11:57:48;;;;;;;7.77;4.20;;;27.00;9.90;;;;;;5003378;28;20456;-89
2023/06/13 12:03:26;;;;;;;5.87;4.50;;;27.00;9.10;;;;;;5078868;27;20625;-75
2023/06/13 12:06:12;;;;;;;6.70;4.30;;;27.20;8.40;;;;;;5071965;28;20620;-74
2023/06/13 12:08:57;;;;;;;7.23;3.73;;;27.30;9.50;;;;;;5064786;28;20456;-75
2023/06/13 12:11:44;;;;;;;8.30;4.50;;;27.30;8.40;;;;;;5065149;28;20448;-76
2023/06/13 12:14:31;;;;;;;7.40;4.03;;;27.40;8.50;;;;;;5067347;28;20519;-74
2023/06/13 12:17:16;;;;;;;4.87;3.20;;;27.40;8.50;;;;;;5068313;28;20450;-74
2023/06/13 12:20:10;;;;;;;7.40;3.90;;;27.50;7.90;;;;;;5068846;28;20531;-74
2023/06/13 12:22:56;;;;;;;8.00;4.10;;;27.50;6.20;;;;;;5065818;28;20530;-74
2023/06/13 12:25:42;;;;;;;6.17;4.07;;;27.60;7.00;;;;;;5066329;28;20447;-74
2023/06/13 12:28:29;;;;;;;5.63;4.13;;;27.60;6.70;;;;;;5066480;28;20868;-74
2023/06/13 12:31:15;;;;;;;9.17;4.10;;;27.60;5.60;;;;;;5068495;28;20442;-74
2023/06/13 12:34:07;;;;;;;6.27;4.00;;;27.50;5.30;;;;;;5064937;28;20473;-74
2023/06/13 12:36:58;;;;;;;6.13;3.50;;;27.40;6.00;;;;;;5063794;28;20827;-73
2023/06/13 12:40:06;;;;;;;7.77;3.57;;;27.40;7.00;;;;;;5064967;28;20579;-73
2023/06/13 12:42:51;;;;;;;8.33;3.93;;;27.40;7.00;;;;;;5064166;28;20615;-74
2023/06/13 12:45:37;;;;;;;7.13;4.27;;;27.50;7.90;;;;;;5064292;28;20439;-74
2023/06/13 12:48:22;;;;;;;5.50;4.20;;;27.70;7.40;;;;;;5065391;28;20678;-73
2023/06/13 12:51:08;;;;;;;5.03;3.60;;;27.80;6.50;;;;;;5064841;28;20461;-75
2023/06/13 12:54:09;;;;;;;5.60;3.63;;;27.90;6.30;;;;;;5063765;28;20460;-74
2023/06/13 12:56:56;;;;;;;8.03;4.00;;;28.00;8.20;;;;;;5066085;28;20524;-74
2023/06/13 12:59:45;;;;;;;5.60;3.87;;;28.10;6.70;;;;;;5064066;28;20445;-73
2023/06/13 13:02:31;;;;;;;6.63;3.60;;;28.30;4.60;;;;;;5065580;28;20551;-73
2023/06/13 13:05:17;;;;;;;5.50;3.97;;;28.40;5.80;;;;;;5067634;28;20934;-74
2023/06/13 13:08:03;;;;;;;7.03;3.83;;;28.50;6.90;;;;;;5067771;28;20451;-73
2023/06/13 13:10:50;;;;;;;5.50;4.03;;;28.60;4.80;;;;;;5065602;28;20454;-73
2023/06/13 13:13:35;;;;;;;6.63;3.60;;;28.60;3.20;;;;;;5061775;28;21672;-74
2023/06/13 13:16:21;;;;;;;20.73;4.20;;;28.50;3.00;;;;;;5058330;28;20979;-74
2023/06/13 13:19:06;;;;;;;7.73;3.87;;;28.60;3.60;;;;;;5051376;28;20580;-74
2023/06/13 13:21:52;;;;;;;8.00;3.43;;;28.60;4.70;;;;;;5049970;28;20473;-73
2023/06/13 13:24:37;;;;;;;7.10;3.90;;;28.80;4.70;;;;;;5054740;28;20455;-74
2023/06/13 13:27:24;;;;;;;5.30;4.10;;;28.90;2.70;;;;;;5054044;28;21312;-73
2023/06/13 13:30:11;;;;;;;18.47;4.67;;;28.80;3.60;;;;;;5050234;28;20583;-72
2023/06/13 13:32:57;;;;;;;7.00;4.13;;;28.90;2.60;;;;;;5048444;28;20971;-74
2023/06/13 13:35:42;;;;;;;5.13;4.30;;;28.90;3.30;;;;;;5052158;28;20963;-73
2023/06/13 13:38:28;;;;;;;5.43;3.87;;;28.80;1.30;;;;;;5054582;28;20459;-73
2023/06/13 13:41:13;;;;;;;4.80;3.97;;;28.90;2.80;;;;;;5051562;28;20440;-73
2023/06/13 13:44:00;;;;;;;6.10;4.23;;;28.80;3.30;;;;;;5049734;28;20860;-74
2023/06/13 13:46:46;;;;;;;6.63;4.60;;;28.80;2.60;;;;;;5053606;28;20574;-74
2023/06/13 13:49:32;;;;;;;4.63;3.97;;;28.90;3.10;;;;;;5048593;28;20466;-74
2023/06/13 13:52:17;;;;;;;5.80;3.97;;;28.90;4.00;;;;;;5051545;28;20439;-72
2023/06/13 13:55:03;;;;;;;7.27;4.50;;;29.00;4.60;;;;;;5052702;28;20463;-74
2023/06/13 13:57:49;;;;;;;7.80;3.67;;;29.20;3.70;;;;;;5054426;28;21200;-74
2023/06/13 14:00:36;;;;;;;6.83;4.13;;;29.30;3.60;;;;;;5053340;28;20829;-73
2023/06/13 14:03:21;;;;;;;8.70;4.33;;;29.30;2.00;;;;;;5052358;28;20549;-73
2023/06/13 14:06:07;;;;;;;4.73;3.50;;;29.30;2.90;;;;;;5052592;28;20548;-73
2023/06/13 14:08:52;;;;;;;5.40;4.10;;;29.30;1.40;;;;;;5055684;28;20980;-73
2023/06/13 14:11:38;;;;;;;9.20;4.60;;;29.30;2.70;;;;;;5051924;28;20563;-74
2023/06/13 14:14:24;;;;;;;17.00;4.40;;;29.40;2.20;;;;;;5055235;28;20515;-72
2023/06/13 14:17:11;;;;;;;5.70;3.70;;;29.50;2.40;;;;;;5059740;28;20459;-74
2023/06/13 14:19:56;;;;;;;5.57;3.60;;;29.50;1.50;;;;;;5055309;28;20438;-73
2023/06/13 14:22:42;;;;;;;5.93;4.00;;;29.60;2.50;;;;;;5055693;28;20573;-73
2023/06/13 14:25:28;;;;;;;5.10;3.70;;;29.50;4.00;;;;;;5054715;28;20458;-73
2023/06/13 14:28:14;;;;;;;19.73;6.60;;;29.60;4.00;;;;;;5053337;28;20438;-74
2023/06/13 14:30:59;;;;;;;9.53;4.30;;;29.70;4.50;;;;;;5054803;28;20967;-73
2023/06/13 14:33:48;;;;;;;13.60;5.20;;;29.80;4.10;;;;;;5053576;28;21077;-74
2023/06/13 14:36:33;;;;;;;6.97;4.37;;;29.90;2.40;;;;;;5054254;28;20448;-74